createdAt,value
2022-09-21T00:01:17.753Z,7.78
2022-09-21T00:03:47.191Z,9.07
2022-09-21T00:06:16.971Z,9.45
2022-09-21T00:08:46.047Z,9.32
2022-09-21T00:11:15.036Z,8.65
2022-09-21T00:13:43.622Z,11.77
2022-09-21T00:16:11.598Z,9.52
2022-09-21T00:18:40.836Z,9.35
2022-09-21T00:21:09.943Z,10.10
2022-09-21T00:23:38.775Z,7.93
2022-09-21T00:26:08.540Z,7.63
2022-09-21T00:28:36.538Z,8.98
2022-09-21T00:31:06.870Z,8.05
2022-09-21T00:33:35.706Z,8.23
2022-09-21T00:36:06.379Z,9.32
2022-09-21T00:38:35.263Z,7.68
2022-09-21T00:41:04.096Z,9.75
2022-09-21T00:43:35.181Z,7.10
2022-09-21T00:46:06.491Z,8.25
2022-09-21T00:48:35.465Z,10.05
2022-09-21T00:51:07.615Z,9.27
2022-09-21T00:53:36.591Z,9.73
2022-09-21T00:56:05.831Z,11.10
2022-09-21T00:58:37.754Z,7.53
2022-09-21T01:01:05.792Z,9.00
2022-09-21T01:03:33.910Z,8.60
2022-09-21T01:06:02.277Z,8.20
2022-09-21T01:08:34.350Z,7.50
2022-09-21T01:11:26.190Z,8.93
2022-09-21T01:14:12.702Z,7.90
2022-09-21T01:16:47.198Z,7.38
2022-09-21T01:19:34.907Z,12.60
2022-09-21T01:22:15.726Z,11.07
2022-09-21T01:25:09.464Z,8.98
2022-09-21T01:28:08.490Z,11.35
2022-09-21T01:30:39.758Z,14.35
2022-09-21T01:33:12.096Z,7.75
2022-09-21T01:35:44.815Z,9.65
2022-09-21T01:38:16.833Z,6.93
2022-09-21T01:40:50.257Z,9.15
2022-09-21T01:43:25.724Z,7.13
2022-09-21T01:45:58.023Z,9.32
2022-09-21T01:48:27.090Z,9.43
2022-09-21T01:50:58.338Z,9.63
2022-09-21T01:53:34.774Z,11.18
2022-09-21T01:56:08.722Z,8.70
2022-09-21T01:58:40.424Z,7.60
2022-09-21T02:01:15.890Z,7.70
2022-09-21T02:03:46.497Z,8.18
2022-09-21T02:06:16.131Z,8.93
2022-09-21T02:08:44.702Z,8.38
2022-09-21T02:11:12.740Z,9.23
2022-09-21T02:13:45.135Z,9.68
2022-09-21T02:16:39.651Z,9.93
2022-09-21T02:19:15.461Z,7.80
2022-09-21T02:25:51.219Z,6.27
2022-09-21T02:28:30.853Z,8.70
2022-09-21T02:31:04.762Z,8.60
2022-09-21T02:33:42.336Z,11.20
2022-09-21T02:36:16.848Z,10.98
2022-09-21T02:38:50.186Z,9.73
2022-09-21T02:41:24.270Z,12.73
2022-09-21T02:43:58.140Z,11.27
2022-09-21T02:46:29.951Z,10.45
2022-09-21T02:49:05.761Z,8.70
2022-09-21T02:54:06.590Z,14.20
2022-09-21T02:56:35.296Z,10.57
2022-09-21T02:59:05.487Z,10.30
2022-09-21T03:01:35.127Z,9.50
2022-09-21T03:04:04.774Z,9.52
2022-09-21T03:06:33.544Z,9.18
2022-09-21T03:09:01.383Z,8.40
2022-09-21T03:11:29.278Z,11.95
2022-09-21T03:13:57.305Z,15.82
2022-09-21T03:16:25.460Z,8.57
2022-09-21T03:18:53.277Z,7.97
2022-09-21T03:21:23.070Z,9.95
2022-09-21T03:23:51.153Z,10.43
2022-09-21T03:26:22.303Z,9.20
2022-09-21T03:28:50.380Z,7.65
2022-09-21T03:31:18.383Z,9.90
2022-09-21T03:33:46.249Z,9.90
2022-09-21T03:36:14.848Z,8.82
2022-09-21T03:38:44.305Z,9.07
2022-09-21T03:41:13.614Z,8.77
2022-09-21T03:43:41.459Z,9.18
2022-09-21T03:46:09.357Z,9.90
2022-09-21T03:48:37.245Z,9.85
2022-09-21T03:51:05.387Z,11.10
2022-09-21T03:53:33.269Z,9.75
2022-09-21T03:56:03.053Z,9.90
2022-09-21T03:58:31.095Z,12.50
2022-09-21T04:01:02.877Z,10.40
2022-09-21T04:03:31.141Z,11.55
2022-09-21T04:05:59.024Z,9.57
2022-09-21T04:08:27.127Z,9.07
2022-09-21T04:10:56.316Z,10.10
2022-09-21T04:13:25.629Z,12.93
2022-09-21T04:15:53.679Z,10.65
2022-09-21T04:18:22.235Z,10.05
2022-09-21T04:20:50.240Z,10.77
2022-09-21T04:23:19.291Z,13.40
2022-09-21T04:25:51.354Z,9.73
2022-09-21T04:28:19.256Z,12.93
2022-09-21T04:30:48.723Z,10.27
2022-09-21T04:33:16.637Z,10.57
2022-09-21T04:35:44.579Z,11.45
2022-09-21T04:38:13.666Z,10.23
2022-09-21T04:40:41.621Z,9.98
2022-09-21T04:43:09.691Z,11.77
2022-09-21T04:45:37.603Z,10.88
2022-09-21T04:48:07.066Z,10.85
2022-09-21T04:50:34.987Z,8.38
2022-09-21T04:53:04.454Z,10.27
2022-09-21T04:55:32.813Z,11.07
2022-09-21T04:58:00.812Z,12.13
2022-09-21T05:00:29.062Z,15.70
2022-09-21T05:02:57.121Z,14.45
2022-09-21T05:05:26.588Z,14.95
2022-09-21T05:07:54.443Z,17.95
2022-09-21T05:10:21.379Z,13.98
2022-09-21T05:12:49.330Z,15.80
2022-09-21T05:15:17.530Z,12.80
2022-09-21T05:17:46.877Z,15.30
2022-09-21T05:20:14.746Z,13.90
2022-09-21T05:22:44.200Z,14.63
2022-09-21T05:25:12.074Z,19.13
2022-09-21T05:27:39.954Z,16.45
2022-09-21T05:30:09.378Z,18.50
2022-09-21T05:32:46.531Z,18.20
2022-09-21T05:35:23.606Z,18.50
2022-09-21T05:37:58.340Z,18.92
2022-09-21T05:40:27.123Z,22.27
2022-09-21T05:42:56.261Z,21.95
2022-09-21T05:45:24.797Z,20.42
2022-09-21T05:48:02.028Z,17.27
2022-09-21T05:50:39.188Z,17.00
2022-09-21T05:53:32.028Z,15.77
2022-09-21T05:56:01.557Z,12.07
2022-09-21T05:58:38.222Z,13.02
2022-09-21T06:01:22.802Z,10.48
2022-09-21T06:03:51.294Z,7.72
2022-09-21T06:06:20.461Z,7.70
2022-09-21T06:08:49.961Z,10.23
2022-09-21T06:11:18.130Z,4.43
2022-09-21T06:13:46.252Z,7.85
2022-09-21T06:16:14.270Z,5.10
2022-09-21T06:18:42.644Z,6.20
2022-09-21T06:21:11.039Z,5.35
2022-09-21T06:23:39.272Z,6.05
2022-09-21T06:26:08.716Z,6.60
2022-09-21T06:28:36.911Z,5.57
2022-09-21T06:31:05.005Z,7.60
2022-09-21T06:33:35.481Z,7.90
2022-09-21T06:36:03.765Z,7.35
2022-09-21T06:38:32.042Z,9.23
2022-09-21T06:41:02.931Z,6.70
2022-09-21T06:43:32.659Z,7.18
2022-09-21T06:46:02.545Z,8.45
2022-09-21T06:48:33.337Z,5.35
2022-09-21T06:51:02.254Z,9.95
2022-09-21T06:53:31.749Z,5.63
2022-09-21T06:56:03.841Z,6.07
2022-09-21T06:58:34.645Z,5.05
2022-09-21T07:01:07.788Z,6.60
2022-09-21T07:03:36.812Z,5.43
2022-09-21T07:06:05.081Z,6.72
2022-09-21T07:11:22.059Z,3.78
2022-09-21T07:13:51.763Z,5.60
2022-09-21T07:16:19.785Z,4.35
2022-09-21T07:18:48.978Z,5.07
2022-09-21T07:21:16.910Z,7.15
2022-09-21T07:23:45.159Z,3.58
2022-09-21T07:26:14.987Z,6.22
2022-09-21T07:28:43.279Z,3.92
2022-09-21T07:31:15.135Z,6.50
2022-09-21T07:33:43.798Z,5.93
2022-09-21T07:36:13.167Z,5.93
2022-09-21T07:38:43.256Z,3.78
2022-09-21T07:41:13.583Z,6.95
2022-09-21T07:43:42.012Z,7.18
2022-09-21T07:46:12.964Z,5.15
2022-09-21T07:48:40.945Z,6.07
2022-09-21T07:51:11.568Z,6.25
2022-09-21T07:53:41.455Z,6.00
2022-09-21T07:56:11.777Z,5.20
2022-09-21T07:58:57.601Z,4.97
2022-09-21T08:01:27.596Z,4.18
2022-09-21T08:03:56.824Z,6.45
2022-09-21T08:06:26.185Z,6.72
2022-09-21T08:08:57.830Z,5.60
2022-09-21T08:11:27.940Z,6.50
2022-09-21T08:13:57.610Z,7.32
2022-09-21T08:16:27.363Z,4.85
2022-09-21T08:18:55.475Z,5.75
2022-09-21T08:21:23.823Z,6.80
2022-09-21T08:23:51.800Z,6.63
2022-09-21T08:26:21.354Z,6.80
2022-09-21T08:28:51.146Z,5.88
2022-09-21T08:31:20.958Z,6.20
2022-09-21T08:33:51.038Z,6.65
2022-09-21T08:36:19.907Z,6.05
2022-09-21T08:38:48.120Z,7.10
2022-09-21T08:41:20.312Z,4.65
2022-09-21T08:43:52.306Z,10.25
2022-09-21T08:46:23.356Z,6.13
2022-09-21T08:48:59.475Z,5.78
2022-09-21T08:51:30.744Z,4.30
2022-09-21T08:54:01.717Z,5.55
2022-09-21T08:56:41.854Z,4.50
2022-09-21T08:59:17.873Z,5.82
2022-09-21T09:01:56.055Z,6.40
2022-09-21T09:04:50.611Z,7.50
2022-09-21T09:07:34.635Z,7.63
2022-09-21T09:10:21.042Z,7.07
2022-09-21T09:13:02.526Z,5.80
2022-09-21T09:16:05.381Z,3.67
2022-09-21T09:18:43.903Z,9.13
2022-09-21T09:21:28.511Z,8.20
2022-09-21T09:24:03.264Z,6.93
2022-09-21T09:26:37.552Z,7.55
2022-09-21T09:29:19.469Z,5.80
2022-09-21T09:31:48.965Z,4.22
2022-09-21T09:34:20.776Z,6.00
2022-09-21T09:36:58.744Z,6.47
2022-09-21T09:39:30.761Z,7.70
2022-09-21T09:42:12.223Z,6.88
2022-09-21T09:45:11.835Z,4.93
2022-09-21T09:47:51.615Z,7.32
2022-09-21T09:50:27.471Z,6.60
2022-09-21T09:53:04.990Z,5.72
2022-09-21T09:55:38.908Z,5.65
2022-09-21T09:58:17.808Z,5.13
2022-09-21T10:00:46.622Z,5.22
2022-09-21T10:03:20.319Z,5.30
2022-09-21T10:05:48.661Z,5.75
2022-09-21T10:08:42.204Z,6.00
2022-09-21T10:11:12.026Z,9.25
2022-09-21T10:13:41.178Z,4.65
2022-09-21T10:16:14.727Z,6.75
2022-09-21T10:18:47.596Z,6.85
2022-09-21T10:21:21.020Z,8.40
2022-09-21T10:23:53.785Z,6.85
2022-09-21T10:26:22.786Z,7.00
2022-09-21T10:28:59.015Z,4.47
2022-09-21T10:31:30.134Z,8.00
2022-09-21T10:34:13.570Z,5.03
2022-09-21T10:36:42.251Z,7.60
2022-09-21T10:39:30.602Z,5.60
2022-09-21T10:42:03.071Z,6.47
2022-09-21T10:44:38.491Z,3.88
2022-09-21T10:47:18.272Z,3.70
2022-09-21T10:49:50.500Z,5.28
2022-09-21T10:52:20.284Z,5.20
2022-09-21T10:54:52.927Z,3.97
2022-09-21T10:57:24.155Z,5.70
2022-09-21T10:59:52.297Z,7.55
2022-09-21T11:02:34.715Z,3.05
2022-09-21T11:05:08.223Z,5.40
2022-09-21T11:07:40.944Z,7.00
2022-09-21T11:10:19.229Z,4.88
2022-09-21T11:12:56.616Z,4.13
2022-09-21T11:15:34.890Z,4.18
2022-09-21T11:18:13.058Z,5.10
2022-09-21T11:20:45.126Z,4.97
2022-09-21T11:23:24.500Z,3.90
2022-09-21T11:26:01.365Z,4.05
2022-09-21T11:28:37.896Z,5.80
2022-09-21T11:31:37.175Z,3.95
2022-09-21T11:34:20.928Z,3.38
2022-09-21T11:37:01.826Z,6.35
2022-09-21T11:39:41.969Z,3.78
2022-09-21T11:42:23.110Z,4.65
2022-09-21T11:44:56.123Z,5.03
2022-09-21T11:47:40.688Z,4.43
2022-09-21T11:50:31.307Z,5.70
2022-09-21T11:53:14.488Z,2.10
2022-09-21T11:55:58.426Z,6.30
2022-09-21T11:58:34.388Z,3.95
2022-09-21T12:01:15.967Z,2.13
2022-09-21T12:04:03.781Z,3.50
2022-09-21T12:06:46.185Z,2.95
2022-09-21T12:09:34.439Z,5.55
2022-09-21T12:12:10.138Z,4.10
2022-09-21T12:14:49.248Z,3.22
2022-09-21T12:17:25.008Z,1.92
2022-09-21T12:20:02.273Z,4.20
2022-09-21T12:22:33.690Z,6.32
2022-09-21T12:25:07.477Z,9.20
2022-09-21T12:27:39.212Z,4.78
2022-09-21T12:30:16.912Z,3.60
2022-09-21T12:32:53.661Z,3.30
2022-09-21T12:35:28.110Z,4.05
2022-09-21T12:38:01.602Z,3.78
2022-09-21T12:40:39.315Z,3.13
2022-09-21T12:43:18.493Z,3.70
2022-09-21T12:45:53.335Z,3.05
2022-09-21T12:48:29.629Z,1.70
2022-09-21T12:51:05.801Z,3.28
2022-09-21T12:53:37.803Z,2.85
2022-09-21T12:56:11.101Z,4.20
2022-09-21T12:58:54.917Z,4.35
2022-09-21T13:01:30.988Z,1.90
2022-09-21T13:04:13.405Z,6.15
2022-09-21T13:06:58.985Z,2.88
2022-09-21T13:09:28.484Z,1.65
2022-09-21T13:11:59.857Z,4.38
2022-09-21T13:14:30.323Z,4.85
2022-09-21T13:17:02.966Z,1.75
2022-09-21T13:19:32.961Z,2.47
2022-09-21T13:22:22.382Z,3.50
2022-09-21T13:25:03.049Z,3.13
2022-09-21T13:28:01.450Z,1.75
2022-09-21T13:30:36.564Z,2.15
2022-09-21T13:33:23.329Z,2.53
2022-09-21T13:36:03.399Z,5.50
2022-09-21T13:38:34.133Z,3.20
2022-09-21T13:41:03.353Z,2.25
2022-09-21T13:44:04.960Z,4.10
2022-09-21T13:46:58.132Z,4.55
2022-09-21T13:49:35.157Z,4.35
2022-09-21T13:52:07.334Z,4.30
2022-09-21T13:54:37.862Z,4.82
2022-09-21T13:57:22.298Z,4.35
2022-09-21T14:00:07.588Z,5.35
2022-09-21T14:02:42.904Z,6.45
2022-09-21T14:05:25.372Z,8.88
2022-09-21T14:07:57.432Z,2.92
2022-09-21T14:10:27.085Z,3.55
2022-09-21T14:12:54.982Z,4.60
2022-09-21T14:15:37.789Z,4.88
2022-09-21T14:18:47.617Z,4.05
2022-09-21T14:21:18.982Z,6.43
2022-09-21T14:24:11.029Z,4.78
2022-09-21T14:26:55.252Z,4.32
2022-09-21T14:29:28.270Z,6.05
2022-09-21T14:31:59.320Z,4.05
2022-09-21T14:34:32.987Z,3.00
2022-09-21T14:37:05.778Z,3.25
2022-09-21T14:39:38.234Z,7.13
2022-09-21T14:42:12.540Z,7.45
2022-09-21T14:44:42.528Z,5.20
2022-09-21T14:47:28.628Z,3.70
2022-09-21T14:50:15.236Z,6.07
2022-09-21T14:53:01.837Z,8.38
2022-09-21T14:58:24.798Z,6.53
2022-09-21T15:00:53.318Z,7.75
2022-09-21T15:03:53.383Z,4.63
2022-09-21T15:06:45.254Z,4.25
2022-09-21T15:10:03.425Z,3.05
2022-09-21T15:12:41.541Z,4.15
2022-09-21T15:15:31.426Z,4.25
2022-09-21T15:18:01.886Z,3.72
2022-09-21T15:20:32.326Z,5.40
2022-09-21T15:23:02.105Z,2.88
2022-09-21T15:25:34.309Z,8.43
2022-09-21T15:28:03.983Z,3.70
2022-09-21T15:30:34.353Z,4.40
2022-09-21T15:33:03.555Z,3.15
2022-09-21T15:35:33.195Z,4.22
2022-09-21T15:38:02.015Z,4.93
2022-09-21T15:40:34.221Z,5.22
2022-09-21T15:43:04.497Z,2.78
2022-09-21T15:45:37.319Z,3.33
2022-09-21T15:48:10.971Z,2.22
2022-09-21T15:50:39.195Z,3.45
2022-09-21T15:53:12.202Z,3.20
2022-09-21T15:55:41.980Z,5.82
2022-09-21T15:58:25.691Z,5.90
2022-09-21T16:00:57.663Z,4.55
2022-09-21T16:03:27.117Z,3.22
2022-09-21T16:05:57.694Z,3.05
2022-09-21T16:08:33.055Z,4.55
2022-09-21T16:11:18.868Z,3.53
2022-09-21T16:14:20.137Z,5.38
2022-09-21T16:17:21.333Z,4.88
2022-09-21T16:20:10.495Z,3.65
2022-09-21T16:22:41.178Z,2.97
2022-09-21T16:25:23.254Z,5.15
2022-09-21T16:27:55.470Z,3.88
2022-09-21T16:30:42.125Z,6.75
2022-09-21T16:33:40.961Z,3.55
2022-09-21T16:36:35.255Z,5.13
2022-09-21T16:39:06.140Z,8.55
2022-09-21T16:41:36.980Z,3.42
2022-09-21T16:44:06.305Z,5.32
2022-09-21T16:46:34.437Z,7.03
2022-09-21T16:49:02.406Z,4.70
2022-09-21T16:51:30.271Z,6.68
2022-09-21T16:53:58.591Z,6.10
2022-09-21T16:56:27.114Z,4.15
2022-09-21T16:58:57.125Z,5.78
2022-09-21T17:01:27.321Z,7.38
2022-09-21T17:03:56.782Z,11.73
2022-09-21T17:06:24.650Z,5.38
2022-09-21T17:08:52.651Z,7.10
2022-09-21T17:11:21.092Z,6.05
2022-09-21T17:13:49.336Z,4.80
2022-09-21T17:16:19.704Z,4.95
2022-09-21T17:18:50.636Z,5.60
2022-09-21T17:21:18.482Z,3.72
2022-09-21T17:23:46.679Z,4.85
2022-09-21T17:26:21.062Z,5.63
2022-09-21T17:28:49.152Z,4.85
2022-09-21T17:31:17.904Z,4.80
2022-09-21T17:33:50.382Z,8.77
2022-09-21T17:36:19.497Z,6.28
2022-09-21T17:39:03.610Z,5.95
2022-09-21T17:41:39.727Z,4.25
2022-09-21T17:44:14.887Z,6.45
2022-09-21T17:46:52.472Z,5.03
2022-09-21T17:49:22.286Z,5.53
2022-09-21T17:52:08.042Z,6.15
2022-09-21T17:54:40.027Z,6.60
2022-09-21T17:57:15.551Z,5.00
2022-09-21T17:59:46.868Z,10.60
2022-09-21T18:02:26.369Z,3.80
2022-09-21T18:05:10.692Z,5.75
2022-09-21T18:07:39.135Z,6.28
2022-09-21T18:10:08.186Z,5.93
2022-09-21T18:13:20.404Z,5.05
2022-09-21T18:16:03.694Z,9.25
2022-09-21T18:18:44.308Z,7.18
2022-09-21T18:21:19.306Z,4.28
2022-09-21T18:24:14.830Z,3.60
2022-09-21T18:26:43.150Z,4.45
2022-09-21T18:29:38.971Z,5.70
2022-09-21T18:32:29.496Z,7.07
2022-09-21T18:35:14.912Z,5.22
2022-09-21T18:37:59.489Z,4.03
2022-09-21T18:40:35.489Z,4.68
2022-09-21T18:43:13.519Z,5.15
2022-09-21T18:45:45.498Z,4.95
2022-09-21T18:48:23.725Z,4.97
2022-09-21T18:50:59.766Z,6.78
2022-09-21T18:53:37.084Z,5.57
2022-09-21T18:56:05.828Z,5.13
2022-09-21T18:58:34.741Z,5.68
2022-09-21T19:01:04.156Z,5.85
2022-09-21T19:03:32.751Z,12.23
2022-09-21T19:06:22.277Z,5.45
2022-09-21T19:09:00.588Z,6.90
2022-09-21T19:11:34.873Z,6.93
2022-09-21T19:14:13.692Z,5.70
2022-09-21T19:16:51.574Z,9.88
2022-09-21T19:19:30.917Z,8.10
2022-09-21T19:22:05.370Z,8.40
2022-09-21T19:24:42.626Z,7.63
2022-09-21T19:27:19.224Z,9.45
2022-09-21T19:29:57.971Z,7.55
2022-09-21T19:32:34.577Z,9.20
2022-09-21T19:35:16.180Z,8.52
2022-09-21T19:37:44.335Z,10.77
2022-09-21T19:40:16.057Z,14.20
2022-09-21T19:43:05.081Z,13.30
2022-09-21T19:45:40.578Z,14.45
2022-09-21T19:48:12.414Z,13.88
2022-09-21T19:50:47.308Z,10.93
2022-09-21T19:53:33.614Z,15.13
2022-09-21T19:56:17.788Z,15.85
2022-09-21T19:59:03.662Z,12.35
2022-09-21T20:01:35.304Z,17.73
2022-09-21T20:04:05.397Z,19.50
2022-09-21T20:06:39.554Z,12.60
2022-09-21T20:09:13.563Z,12.65
2022-09-21T20:11:51.540Z,16.77
2022-09-21T20:14:31.124Z,14.65
2022-09-21T20:17:02.174Z,14.20
2022-09-21T20:19:44.506Z,13.45
2022-09-21T20:22:15.019Z,14.80
2022-09-21T20:24:51.196Z,17.05
2022-09-21T20:27:34.898Z,14.60
2022-09-21T20:30:03.202Z,18.10
2022-09-21T20:32:31.871Z,17.75
2022-09-21T20:34:59.736Z,18.00
2022-09-21T20:37:30.417Z,17.13
2022-09-21T20:39:58.258Z,17.15
2022-09-21T20:42:26.898Z,18.30
2022-09-21T20:44:56.204Z,20.15
2022-09-21T20:47:24.079Z,20.80
2022-09-21T20:49:52.188Z,19.65
2022-09-21T20:52:20.081Z,21.30
2022-09-21T20:54:49.544Z,22.60
2022-09-21T20:57:18.053Z,18.95
2022-09-21T20:59:45.939Z,17.05
2022-09-21T21:02:16.592Z,16.98
2022-09-21T21:04:44.500Z,18.48
2022-09-21T21:07:12.434Z,25.65
2022-09-21T21:09:40.325Z,21.10
2022-09-21T21:12:09.413Z,20.27
2022-09-21T21:14:37.501Z,21.13
2022-09-21T21:17:06.111Z,18.20
2022-09-21T21:19:35.788Z,19.50
2022-09-21T21:22:03.845Z,20.23
2022-09-21T21:24:44.238Z,16.50
2022-09-21T21:27:16.321Z,21.98
2022-09-21T21:29:46.285Z,19.15
2022-09-21T21:32:14.933Z,23.45
2022-09-21T21:34:44.640Z,19.63
2022-09-21T21:37:15.990Z,20.20
2022-09-21T21:39:44.178Z,20.75
2022-09-21T21:42:12.669Z,18.92
2022-09-21T21:44:40.870Z,23.08
2022-09-21T21:47:37.654Z,20.85
2022-09-21T21:49:59.186Z,26.25
2022-09-21T21:52:27.093Z,19.65
2022-09-21T21:54:54.951Z,20.83
2022-09-21T21:57:22.886Z,18.80
2022-09-21T21:59:50.713Z,18.30
2022-09-21T22:02:18.595Z,21.20
2022-09-21T22:04:46.444Z,17.70
2022-09-21T22:07:15.686Z,21.15
2022-09-21T22:09:43.664Z,17.48
2022-09-21T22:12:12.119Z,23.48
2022-09-21T22:14:40.088Z,22.70
2022-09-21T22:17:08.073Z,22.65
2022-09-21T22:19:36.121Z,19.60
2022-09-21T22:22:04.046Z,20.08
2022-09-21T22:24:33.441Z,19.55
2022-09-21T22:27:01.361Z,20.67
2022-09-21T22:29:29.394Z,21.90
2022-09-21T22:31:57.602Z,18.60
2022-09-21T22:34:25.562Z,22.08
2022-09-21T22:36:53.845Z,21.38
2022-09-21T22:39:21.727Z,22.73
2022-09-21T22:41:51.229Z,21.38
2022-09-21T22:44:19.132Z,22.92
2022-09-21T22:46:47.161Z,22.73
2022-09-21T22:49:15.036Z,23.20
2022-09-21T22:51:43.144Z,25.23
2022-09-21T22:54:11.042Z,25.65
2022-09-21T22:56:38.924Z,22.88
2022-09-21T22:59:08.536Z,21.80
2022-09-21T23:01:38.345Z,18.90
2022-09-21T23:04:08.441Z,24.15
2022-09-21T23:06:38.358Z,20.70
2022-09-21T23:09:09.137Z,22.35
2022-09-21T23:11:38.996Z,20.70
2022-09-21T23:14:08.192Z,21.60
2022-09-21T23:16:36.325Z,23.83
2022-09-21T23:19:04.192Z,21.85
2022-09-21T23:21:32.246Z,23.60
2022-09-21T23:24:02.076Z,25.30
2022-09-21T23:26:32.081Z,24.40
2022-09-21T23:29:01.572Z,22.90
2022-09-21T23:31:32.423Z,25.40
2022-09-21T23:34:04.390Z,24.65
2022-09-21T23:36:33.062Z,23.35
2022-09-21T23:39:01.102Z,20.45
2022-09-21T23:41:31.041Z,23.13
2022-09-21T23:44:00.057Z,23.50
2022-09-21T23:46:31.577Z,24.67
2022-09-21T23:49:00.778Z,26.13
2022-09-21T23:51:29.931Z,30.30
2022-09-21T23:53:58.726Z,29.10
2022-09-21T23:56:27.169Z,34.42
2022-09-21T23:58:55.162Z,32.72
